sensor_id;sensor_type;location;lat;lon;timestamp;temperature;humidity
38684;DHT22;24910;53.248;-6.134;2023-07-31T00:02:28;19.00;82.90
38684;DHT22;24910;53.248;-6.134;2023-07-31T00:04:57;19.00;83.00
38684;DHT22;24910;53.248;-6.134;2023-07-31T00:07:26;19.00;83.10
38684;DHT22;24910;53.248;-6.134;2023-07-31T00:09:56;18.90;83.00
38684;DHT22;24910;53.248;-6.134;2023-07-31T00:12:25;19.00;83.00
38684;DHT22;24910;53.248;-6.134;2023-07-31T00:14:54;19.00;83.00
38684;DHT22;24910;53.248;-6.134;2023-07-31T00:17:23;18.90;82.90
38684;DHT22;24910;53.248;-6.134;2023-07-31T00:19:54;18.90;82.90
38684;DHT22;24910;53.248;-6.134;2023-07-31T00:22:23;18.90;83.00
38684;DHT22;24910;53.248;-6.134;2023-07-31T00:24:52;18.90;83.00
38684;DHT22;24910;53.248;-6.134;2023-07-31T00:27:21;18.90;83.00
38684;DHT22;24910;53.248;-6.134;2023-07-31T00:29:50;18.90;82.90
38684;DHT22;24910;53.248;-6.134;2023-07-31T00:32:19;18.90;82.90
38684;DHT22;24910;53.248;-6.134;2023-07-31T00:34:49;18.90;83.00
38684;DHT22;24910;53.248;-6.134;2023-07-31T00:37:19;18.90;82.90
38684;DHT22;24910;53.248;-6.134;2023-07-31T00:39:48;18.90;82.90
38684;DHT22;24910;53.248;-6.134;2023-07-31T00:42:17;18.90;82.80
38684;DHT22;24910;53.248;-6.134;2023-07-31T00:44:48;18.90;82.80
38684;DHT22;24910;53.248;-6.134;2023-07-31T00:47:17;19.00;82.90
38684;DHT22;24910;53.248;-6.134;2023-07-31T00:49:46;18.90;82.70
38684;DHT22;24910;53.248;-6.134;2023-07-31T00:52:18;19.00;82.80
38684;DHT22;24910;53.248;-6.134;2023-07-31T00:54:48;18.90;82.70
38684;DHT22;24910;53.248;-6.134;2023-07-31T00:57:17;18.90;82.60
38684;DHT22;24910;53.248;-6.134;2023-07-31T00:59:47;18.90;82.60
38684;DHT22;24910;53.248;-6.134;2023-07-31T01:02:16;18.90;82.70
38684;DHT22;24910;53.248;-6.134;2023-07-31T01:04:46;18.90;82.70
38684;DHT22;24910;53.248;-6.134;2023-07-31T01:07:22;18.90;82.70
38684;DHT22;24910;53.248;-6.134;2023-07-31T01:09:58;18.90;82.80
38684;DHT22;24910;53.248;-6.134;2023-07-31T01:12:28;18.90;82.80
38684;DHT22;24910;53.248;-6.134;2023-07-31T01:15:03;18.90;82.60
38684;DHT22;24910;53.248;-6.134;2023-07-31T01:17:32;18.90;82.80
38684;DHT22;24910;53.248;-6.134;2023-07-31T01:20:05;18.90;82.80
38684;DHT22;24910;53.248;-6.134;2023-07-31T01:22:54;18.90;82.80
38684;DHT22;24910;53.248;-6.134;2023-07-31T01:25:46;18.80;82.80
38684;DHT22;24910;53.248;-6.134;2023-07-31T01:28:20;18.80;82.80
38684;DHT22;24910;53.248;-6.134;2023-07-31T01:30:55;18.80;82.80
38684;DHT22;24910;53.248;-6.134;2023-07-31T01:33:26;18.80;82.80
38684;DHT22;24910;53.248;-6.134;2023-07-31T01:35:56;18.80;82.80
38684;DHT22;24910;53.248;-6.134;2023-07-31T01:38:25;18.80;82.80
38684;DHT22;24910;53.248;-6.134;2023-07-31T01:40:56;18.80;82.80
38684;DHT22;24910;53.248;-6.134;2023-07-31T01:43:26;18.80;82.70
38684;DHT22;24910;53.248;-6.134;2023-07-31T01:45:55;18.80;82.70
38684;DHT22;24910;53.248;-6.134;2023-07-31T01:48:24;18.90;82.70
38684;DHT22;24910;53.248;-6.134;2023-07-31T01:50:53;18.90;82.60
38684;DHT22;24910;53.248;-6.134;2023-07-31T01:53:23;18.80;82.60
38684;DHT22;24910;53.248;-6.134;2023-07-31T01:55:52;18.80;82.60
38684;DHT22;24910;53.248;-6.134;2023-07-31T01:58:23;18.80;82.80
38684;DHT22;24910;53.248;-6.134;2023-07-31T02:00:52;18.80;82.80
38684;DHT22;24910;53.248;-6.134;2023-07-31T02:03:21;18.80;82.80
38684;DHT22;24910;53.248;-6.134;2023-07-31T02:05:54;18.70;82.80
38684;DHT22;24910;53.248;-6.134;2023-07-31T02:08:25;18.70;83.00
38684;DHT22;24910;53.248;-6.134;2023-07-31T02:10:54;18.70;83.10
38684;DHT22;24910;53.248;-6.134;2023-07-31T02:13:25;18.70;83.20
38684;DHT22;24910;53.248;-6.134;2023-07-31T02:15:54;18.60;83.10
38684;DHT22;24910;53.248;-6.134;2023-07-31T02:18:23;18.60;83.30
38684;DHT22;24910;53.248;-6.134;2023-07-31T02:20:52;18.60;83.30
38684;DHT22;24910;53.248;-6.134;2023-07-31T02:23:21;18.60;83.40
38684;DHT22;24910;53.248;-6.134;2023-07-31T02:25:50;18.50;83.40
38684;DHT22;24910;53.248;-6.134;2023-07-31T02:28:20;18.50;83.40
38684;DHT22;24910;53.248;-6.134;2023-07-31T02:30:51;18.50;83.40
38684;DHT22;24910;53.248;-6.134;2023-07-31T02:33:21;18.50;83.40
38684;DHT22;24910;53.248;-6.134;2023-07-31T02:35:50;18.50;83.40
38684;DHT22;24910;53.248;-6.134;2023-07-31T02:38:19;18.50;83.40
38684;DHT22;24910;53.248;-6.134;2023-07-31T02:40:48;18.50;83.40
38684;DHT22;24910;53.248;-6.134;2023-07-31T02:43:17;18.40;83.30
38684;DHT22;24910;53.248;-6.134;2023-07-31T02:45:52;18.50;83.40
38684;DHT22;24910;53.248;-6.134;2023-07-31T02:48:21;18.40;83.30
38684;DHT22;24910;53.248;-6.134;2023-07-31T02:50:51;18.40;83.40
38684;DHT22;24910;53.248;-6.134;2023-07-31T02:53:20;18.40;83.40
38684;DHT22;24910;53.248;-6.134;2023-07-31T02:55:50;18.40;83.40
38684;DHT22;24910;53.248;-6.134;2023-07-31T02:58:19;18.40;83.50
38684;DHT22;24910;53.248;-6.134;2023-07-31T03:00:48;18.40;83.40
38684;DHT22;24910;53.248;-6.134;2023-07-31T03:03:19;18.40;83.40
38684;DHT22;24910;53.248;-6.134;2023-07-31T03:05:49;18.30;83.40
38684;DHT22;24910;53.248;-6.134;2023-07-31T03:08:18;18.30;83.50
38684;DHT22;24910;53.248;-6.134;2023-07-31T03:10:47;18.30;84.40
38684;DHT22;24910;53.248;-6.134;2023-07-31T03:13:16;18.30;83.50
38684;DHT22;24910;53.248;-6.134;2023-07-31T03:15:45;18.30;83.60
38684;DHT22;24910;53.248;-6.134;2023-07-31T03:18:14;18.30;83.60
38684;DHT22;24910;53.248;-6.134;2023-07-31T03:20:45;18.30;83.70
38684;DHT22;24910;53.248;-6.134;2023-07-31T03:23:14;18.30;83.60
38684;DHT22;24910;53.248;-6.134;2023-07-31T03:25:56;18.30;83.70
38684;DHT22;24910;53.248;-6.134;2023-07-31T03:28:28;18.30;83.60
38684;DHT22;24910;53.248;-6.134;2023-07-31T03:30:58;18.30;83.60
38684;DHT22;24910;53.248;-6.134;2023-07-31T03:33:27;18.30;83.50
38684;DHT22;24910;53.248;-6.134;2023-07-31T03:35:58;18.30;83.40
38684;DHT22;24910;53.248;-6.134;2023-07-31T03:38:27;18.30;83.40
38684;DHT22;24910;53.248;-6.134;2023-07-31T03:40:56;18.30;83.30
38684;DHT22;24910;53.248;-6.134;2023-07-31T03:43:26;18.30;83.30
38684;DHT22;24910;53.248;-6.134;2023-07-31T03:45:55;18.30;83.40
38684;DHT22;24910;53.248;-6.134;2023-07-31T03:48:25;18.20;83.40
38684;DHT22;24910;53.248;-6.134;2023-07-31T03:50:55;18.30;83.60
38684;DHT22;24910;53.248;-6.134;2023-07-31T03:53:25;18.30;83.60
38684;DHT22;24910;53.248;-6.134;2023-07-31T03:55:54;18.20;83.60
38684;DHT22;24910;53.248;-6.134;2023-07-31T03:58:23;18.30;83.70
38684;DHT22;24910;53.248;-6.134;2023-07-31T04:00:52;18.30;83.70
38684;DHT22;24910;53.248;-6.134;2023-07-31T04:03:22;18.20;83.70
38684;DHT22;24910;53.248;-6.134;2023-07-31T04:05:51;18.20;83.70
38684;DHT22;24910;53.248;-6.134;2023-07-31T04:08:20;18.20;83.70
38684;DHT22;24910;53.248;-6.134;2023-07-31T04:10:50;18.20;83.70
38684;DHT22;24910;53.248;-6.134;2023-07-31T04:13:21;18.20;83.60
38684;DHT22;24910;53.248;-6.134;2023-07-31T04:15:50;18.20;83.70
38684;DHT22;24910;53.248;-6.134;2023-07-31T04:18:19;18.20;83.70
38684;DHT22;24910;53.248;-6.134;2023-07-31T04:20:49;18.20;83.70
38684;DHT22;24910;53.248;-6.134;2023-07-31T04:23:18;18.20;83.70
38684;DHT22;24910;53.248;-6.134;2023-07-31T04:25:47;18.20;83.90
38684;DHT22;24910;53.248;-6.134;2023-07-31T04:28:17;18.20;83.80
38684;DHT22;24910;53.248;-6.134;2023-07-31T04:30:46;18.20;83.90
38684;DHT22;24910;53.248;-6.134;2023-07-31T04:33:17;18.20;83.90
38684;DHT22;24910;53.248;-6.134;2023-07-31T04:35:51;18.20;83.90
38684;DHT22;24910;53.248;-6.134;2023-07-31T04:38:21;18.20;83.90
38684;DHT22;24910;53.248;-6.134;2023-07-31T04:40:50;18.20;83.90
38684;DHT22;24910;53.248;-6.134;2023-07-31T04:43:21;18.20;83.90
38684;DHT22;24910;53.248;-6.134;2023-07-31T04:45:50;18.20;83.90
38684;DHT22;24910;53.248;-6.134;2023-07-31T04:48:19;18.20;84.00
38684;DHT22;24910;53.248;-6.134;2023-07-31T04:50:48;18.20;84.10
38684;DHT22;24910;53.248;-6.134;2023-07-31T04:53:17;18.20;84.10
38684;DHT22;24910;53.248;-6.134;2023-07-31T04:55:46;18.20;84.10
38684;DHT22;24910;53.248;-6.134;2023-07-31T04:58:15;18.20;84.00
38684;DHT22;24910;53.248;-6.134;2023-07-31T05:00:45;18.10;84.00
38684;DHT22;24910;53.248;-6.134;2023-07-31T05:03:14;18.20;84.10
38684;DHT22;24910;53.248;-6.134;2023-07-31T05:05:44;18.20;84.10
38684;DHT22;24910;53.248;-6.134;2023-07-31T05:08:13;18.20;85.00
38684;DHT22;24910;53.248;-6.134;2023-07-31T05:10:42;18.20;84.10
38684;DHT22;24910;53.248;-6.134;2023-07-31T05:13:11;18.20;84.10
38684;DHT22;24910;53.248;-6.134;2023-07-31T05:15:41;18.20;84.90
38684;DHT22;24910;53.248;-6.134;2023-07-31T05:18:11;18.20;84.00
38684;DHT22;24910;53.248;-6.134;2023-07-31T05:20:40;18.20;83.90
38684;DHT22;24910;53.248;-6.134;2023-07-31T05:23:09;18.20;83.80
38684;DHT22;24910;53.248;-6.134;2023-07-31T05:25:38;18.30;83.90
38684;DHT22;24910;53.248;-6.134;2023-07-31T05:28:07;18.20;83.80
38684;DHT22;24910;53.248;-6.134;2023-07-31T05:30:37;18.30;83.80
38684;DHT22;24910;53.248;-6.134;2023-07-31T05:33:06;18.30;83.90
38684;DHT22;24910;53.248;-6.134;2023-07-31T05:35:36;18.30;83.90
38684;DHT22;24910;53.248;-6.134;2023-07-31T05:38:06;18.30;83.80
38684;DHT22;24910;53.248;-6.134;2023-07-31T05:40:35;18.30;83.70
38684;DHT22;24910;53.248;-6.134;2023-07-31T05:43:04;18.30;83.70
38684;DHT22;24910;53.248;-6.134;2023-07-31T05:45:34;18.30;83.90
38684;DHT22;24910;53.248;-6.134;2023-07-31T05:48:03;18.30;83.90
38684;DHT22;24910;53.248;-6.134;2023-07-31T05:50:33;18.20;83.80
38684;DHT22;24910;53.248;-6.134;2023-07-31T05:53:03;18.30;83.90
38684;DHT22;24910;53.248;-6.134;2023-07-31T05:55:32;18.20;83.80
38684;DHT22;24910;53.248;-6.134;2023-07-31T05:58:01;18.30;83.80
38684;DHT22;24910;53.248;-6.134;2023-07-31T06:00:30;18.30;83.80
38684;DHT22;24910;53.248;-6.134;2023-07-31T06:02:59;18.30;83.70
38684;DHT22;24910;53.248;-6.134;2023-07-31T06:05:28;18.30;83.60
38684;DHT22;24910;53.248;-6.134;2023-07-31T06:07:58;18.30;83.60
38684;DHT22;24910;53.248;-6.134;2023-07-31T06:10:28;18.30;83.60
38684;DHT22;24910;53.248;-6.134;2023-07-31T06:12:57;18.30;83.60
38684;DHT22;24910;53.248;-6.134;2023-07-31T06:15:26;18.30;83.60
38684;DHT22;24910;53.248;-6.134;2023-07-31T06:17:55;18.30;83.60
38684;DHT22;24910;53.248;-6.134;2023-07-31T06:20:25;18.30;83.70
38684;DHT22;24910;53.248;-6.134;2023-07-31T06:22:54;18.20;83.60
38684;DHT22;24910;53.248;-6.134;2023-07-31T06:25:23;18.30;83.70
38684;DHT22;24910;53.248;-6.134;2023-07-31T06:27:54;18.20;83.60
38684;DHT22;24910;53.248;-6.134;2023-07-31T06:30:23;18.30;83.60
38684;DHT22;24910;53.248;-6.134;2023-07-31T06:32:52;18.30;83.60
38684;DHT22;24910;53.248;-6.134;2023-07-31T06:35:21;18.20;83.50
38684;DHT22;24910;53.248;-6.134;2023-07-31T06:37:50;18.20;83.50
38684;DHT22;24910;53.248;-6.134;2023-07-31T06:40:19;18.20;83.50
38684;DHT22;24910;53.248;-6.134;2023-07-31T06:42:48;18.30;83.50
38684;DHT22;24910;53.248;-6.134;2023-07-31T06:45:19;18.30;83.40
38684;DHT22;24910;53.248;-6.134;2023-07-31T06:47:49;18.20;83.40
38684;DHT22;24910;53.248;-6.134;2023-07-31T06:50:18;18.20;83.40
38684;DHT22;24910;53.248;-6.134;2023-07-31T06:52:47;18.20;83.40
38684;DHT22;24910;53.248;-6.134;2023-07-31T06:55:18;18.30;83.40
38684;DHT22;24910;53.248;-6.134;2023-07-31T06:57:48;18.30;83.40
38684;DHT22;24910;53.248;-6.134;2023-07-31T07:00:19;18.20;83.40
38684;DHT22;24910;53.248;-6.134;2023-07-31T07:02:51;18.20;83.50
38684;DHT22;24910;53.248;-6.134;2023-07-31T07:05:20;18.20;83.50
38684;DHT22;24910;53.248;-6.134;2023-07-31T07:07:50;18.20;83.40
38684;DHT22;24910;53.248;-6.134;2023-07-31T07:10:20;18.20;83.30
38684;DHT22;24910;53.248;-6.134;2023-07-31T07:12:49;18.20;83.40
38684;DHT22;24910;53.248;-6.134;2023-07-31T07:15:19;18.20;83.40
38684;DHT22;24910;53.248;-6.134;2023-07-31T07:17:49;18.20;83.50
38684;DHT22;24910;53.248;-6.134;2023-07-31T07:20:18;18.20;83.50
38684;DHT22;24910;53.248;-6.134;2023-07-31T07:22:47;18.20;83.40
38684;DHT22;24910;53.248;-6.134;2023-07-31T07:25:17;18.20;83.20
38684;DHT22;24910;53.248;-6.134;2023-07-31T07:27:46;18.30;83.30
38684;DHT22;24910;53.248;-6.134;2023-07-31T07:30:15;18.30;83.30
38684;DHT22;24910;53.248;-6.134;2023-07-31T07:32:46;18.30;83.30
38684;DHT22;24910;53.248;-6.134;2023-07-31T07:35:15;18.30;83.30
38684;DHT22;24910;53.248;-6.134;2023-07-31T07:37:45;18.30;84.00
38684;DHT22;24910;53.248;-6.134;2023-07-31T07:40:14;18.40;83.30
38684;DHT22;24910;53.248;-6.134;2023-07-31T07:42:43;18.30;83.30
38684;DHT22;24910;53.248;-6.134;2023-07-31T07:45:12;18.30;83.30
38684;DHT22;24910;53.248;-6.134;2023-07-31T07:47:41;18.30;83.30
38684;DHT22;24910;53.248;-6.134;2023-07-31T07:50:12;18.30;83.30
38684;DHT22;24910;53.248;-6.134;2023-07-31T07:52:41;18.30;83.30
38684;DHT22;24910;53.248;-6.134;2023-07-31T07:55:10;18.30;83.30
38684;DHT22;24910;53.248;-6.134;2023-07-31T07:57:39;18.30;83.30
38684;DHT22;24910;53.248;-6.134;2023-07-31T08:00:09;18.30;83.30
38684;DHT22;24910;53.248;-6.134;2023-07-31T08:02:43;18.30;83.30
38684;DHT22;24910;53.248;-6.134;2023-07-31T08:05:13;18.30;83.20
38684;DHT22;24910;53.248;-6.134;2023-07-31T08:07:42;18.30;83.10
38684;DHT22;24910;53.248;-6.134;2023-07-31T08:10:12;18.40;83.10
38684;DHT22;24910;53.248;-6.134;2023-07-31T08:12:41;18.40;83.00
38684;DHT22;24910;53.248;-6.134;2023-07-31T08:15:10;18.40;83.00
38684;DHT22;24910;53.248;-6.134;2023-07-31T08:17:39;18.40;83.00
38684;DHT22;24910;53.248;-6.134;2023-07-31T08:20:09;18.40;82.90
38684;DHT22;24910;53.248;-6.134;2023-07-31T08:22:40;18.40;83.00
38684;DHT22;24910;53.248;-6.134;2023-07-31T08:25:09;18.40;83.00
38684;DHT22;24910;53.248;-6.134;2023-07-31T08:27:38;18.40;83.10
38684;DHT22;24910;53.248;-6.134;2023-07-31T08:30:08;18.40;83.30
38684;DHT22;24910;53.248;-6.134;2023-07-31T08:32:37;18.40;84.20
38684;DHT22;24910;53.248;-6.134;2023-07-31T08:35:07;18.40;83.40
38684;DHT22;24910;53.248;-6.134;2023-07-31T08:37:37;18.30;83.30
38684;DHT22;24910;53.248;-6.134;2023-07-31T08:40:08;18.30;83.30
38684;DHT22;24910;53.248;-6.134;2023-07-31T08:42:43;18.30;83.30
38684;DHT22;24910;53.248;-6.134;2023-07-31T08:45:15;18.30;83.40
38684;DHT22;24910;53.248;-6.134;2023-07-31T08:47:45;18.20;83.40
38684;DHT22;24910;53.248;-6.134;2023-07-31T08:50:16;18.20;83.60
38684;DHT22;24910;53.248;-6.134;2023-07-31T08:52:46;18.20;83.60
38684;DHT22;24910;53.248;-6.134;2023-07-31T08:55:18;18.20;83.60
38684;DHT22;24910;53.248;-6.134;2023-07-31T08:57:51;18.10;83.60
38684;DHT22;24910;53.248;-6.134;2023-07-31T09:00:21;18.10;83.70
38684;DHT22;24910;53.248;-6.134;2023-07-31T09:02:56;18.10;83.60
38684;DHT22;24910;53.248;-6.134;2023-07-31T09:05:26;18.10;83.60
38684;DHT22;24910;53.248;-6.134;2023-07-31T09:07:57;18.10;83.60
38684;DHT22;24910;53.248;-6.134;2023-07-31T09:10:28;18.10;83.50
38684;DHT22;24910;53.248;-6.134;2023-07-31T09:12:58;18.10;84.30
38684;DHT22;24910;53.248;-6.134;2023-07-31T09:15:27;18.10;83.30
38684;DHT22;24910;53.248;-6.134;2023-07-31T09:18:06;18.10;83.30
38684;DHT22;24910;53.248;-6.134;2023-07-31T09:20:36;18.10;83.20
38684;DHT22;24910;53.248;-6.134;2023-07-31T09:23:07;18.10;83.20
38684;DHT22;24910;53.248;-6.134;2023-07-31T09:25:39;18.20;83.10
38684;DHT22;24910;53.248;-6.134;2023-07-31T09:28:10;18.20;83.00
38684;DHT22;24910;53.248;-6.134;2023-07-31T09:30:46;18.20;82.90
38684;DHT22;24910;53.248;-6.134;2023-07-31T09:33:16;18.30;82.90
38684;DHT22;24910;53.248;-6.134;2023-07-31T09:35:46;18.30;82.80
38684;DHT22;24910;53.248;-6.134;2023-07-31T09:38:16;18.30;83.00
38684;DHT22;24910;53.248;-6.134;2023-07-31T09:40:48;18.30;82.90
38684;DHT22;24910;53.248;-6.134;2023-07-31T09:43:18;18.30;83.00
38684;DHT22;24910;53.248;-6.134;2023-07-31T09:45:48;18.30;83.10
38684;DHT22;24910;53.248;-6.134;2023-07-31T09:48:23;18.30;83.20
38684;DHT22;24910;53.248;-6.134;2023-07-31T09:50:55;18.30;83.30
38684;DHT22;24910;53.248;-6.134;2023-07-31T09:53:28;18.20;83.20
38684;DHT22;24910;53.248;-6.134;2023-07-31T09:56:01;18.20;83.30
38684;DHT22;24910;53.248;-6.134;2023-07-31T09:58:34;18.20;83.30
38684;DHT22;24910;53.248;-6.134;2023-07-31T10:01:04;18.20;83.30
38684;DHT22;24910;53.248;-6.134;2023-07-31T10:03:33;18.20;83.30
38684;DHT22;24910;53.248;-6.134;2023-07-31T10:06:03;18.20;83.30
38684;DHT22;24910;53.248;-6.134;2023-07-31T10:08:35;18.30;83.30
38684;DHT22;24910;53.248;-6.134;2023-07-31T10:11:09;18.30;83.30
38684;DHT22;24910;53.248;-6.134;2023-07-31T10:13:39;18.30;83.30
38684;DHT22;24910;53.248;-6.134;2023-07-31T10:16:10;18.30;83.10
38684;DHT22;24910;53.248;-6.134;2023-07-31T10:18:41;18.40;83.20
38684;DHT22;24910;53.248;-6.134;2023-07-31T10:21:11;18.40;83.20
38684;DHT22;24910;53.248;-6.134;2023-07-31T10:23:41;18.40;83.20
38684;DHT22;24910;53.248;-6.134;2023-07-31T10:26:13;18.40;83.10
38684;DHT22;24910;53.248;-6.134;2023-07-31T10:28:46;18.40;83.10
38684;DHT22;24910;53.248;-6.134;2023-07-31T10:31:16;18.40;83.10
38684;DHT22;24910;53.248;-6.134;2023-07-31T10:33:46;18.40;83.10
38684;DHT22;24910;53.248;-6.134;2023-07-31T10:36:17;18.40;83.20
38684;DHT22;24910;53.248;-6.134;2023-07-31T10:38:49;18.30;83.10
38684;DHT22;24910;53.248;-6.134;2023-07-31T10:41:19;18.30;83.20
38684;DHT22;24910;53.248;-6.134;2023-07-31T10:43:48;18.30;83.20
38684;DHT22;24910;53.248;-6.134;2023-07-31T10:46:18;18.40;83.30
38684;DHT22;24910;53.248;-6.134;2023-07-31T10:48:49;18.30;83.30
38684;DHT22;24910;53.248;-6.134;2023-07-31T10:51:33;18.30;83.40
38684;DHT22;24910;53.248;-6.134;2023-07-31T10:54:14;18.30;83.40
38684;DHT22;24910;53.248;-6.134;2023-07-31T10:56:47;18.20;84.40
38684;DHT22;24910;53.248;-6.134;2023-07-31T10:59:20;18.20;83.60
38684;DHT22;24910;53.248;-6.134;2023-07-31T11:01:56;18.20;83.60
38684;DHT22;24910;53.248;-6.134;2023-07-31T11:04:26;18.20;83.60
38684;DHT22;24910;53.248;-6.134;2023-07-31T11:06:56;18.30;83.60
38684;DHT22;24910;53.248;-6.134;2023-07-31T11:09:29;18.30;83.60
38684;DHT22;24910;53.248;-6.134;2023-07-31T11:12:00;18.30;83.50
38684;DHT22;24910;53.248;-6.134;2023-07-31T11:14:30;18.30;83.60
38684;DHT22;24910;53.248;-6.134;2023-07-31T11:16:59;18.30;83.60
38684;DHT22;24910;53.248;-6.134;2023-07-31T11:19:28;18.40;83.60
38684;DHT22;24910;53.248;-6.134;2023-07-31T11:21:57;18.30;83.60
38684;DHT22;24910;53.248;-6.134;2023-07-31T11:24:27;18.40;83.70
38684;DHT22;24910;53.248;-6.134;2023-07-31T11:26:56;18.50;83.70
38684;DHT22;24910;53.248;-6.134;2023-07-31T11:29:28;18.50;83.60
38684;DHT22;24910;53.248;-6.134;2023-07-31T11:31:58;18.50;83.60
38684;DHT22;24910;53.248;-6.134;2023-07-31T11:34:27;18.60;83.60
38684;DHT22;24910;53.248;-6.134;2023-07-31T11:36:56;18.60;83.60
38684;DHT22;24910;53.248;-6.134;2023-07-31T11:39:25;18.60;84.50
38684;DHT22;24910;53.248;-6.134;2023-07-31T11:41:58;18.60;83.60
38684;DHT22;24910;53.248;-6.134;2023-07-31T11:44:39;18.60;83.70
38684;DHT22;24910;53.248;-6.134;2023-07-31T11:47:16;18.70;83.90
38684;DHT22;24910;53.248;-6.134;2023-07-31T11:49:45;18.60;83.80
38684;DHT22;24910;53.248;-6.134;2023-07-31T11:52:14;18.60;83.80
38684;DHT22;24910;53.248;-6.134;2023-07-31T11:54:44;18.70;83.80
38684;DHT22;24910;53.248;-6.134;2023-07-31T11:57:13;18.70;83.70
38684;DHT22;24910;53.248;-6.134;2023-07-31T11:59:44;18.80;83.70
38684;DHT22;24910;53.248;-6.134;2023-07-31T12:02:13;18.80;83.70
38684;DHT22;24910;53.248;-6.134;2023-07-31T12:04:42;18.80;83.60
38684;DHT22;24910;53.248;-6.134;2023-07-31T12:07:11;18.90;83.70
38684;DHT22;24910;53.248;-6.134;2023-07-31T12:09:51;18.90;83.70
38684;DHT22;24910;53.248;-6.134;2023-07-31T12:12:23;19.00;83.70
38684;DHT22;24910;53.248;-6.134;2023-07-31T12:14:55;19.10;83.60
38684;DHT22;24910;53.248;-6.134;2023-07-31T12:17:25;19.10;83.40
38684;DHT22;24910;53.248;-6.134;2023-07-31T12:19:54;19.20;83.50
38684;DHT22;24910;53.248;-6.134;2023-07-31T12:22:23;19.30;83.50
38684;DHT22;24910;53.248;-6.134;2023-07-31T12:24:54;19.40;83.30
38684;DHT22;24910;53.248;-6.134;2023-07-31T12:27:23;19.50;83.10
38684;DHT22;24910;53.248;-6.134;2023-07-31T12:29:55;19.50;83.00
38684;DHT22;24910;53.248;-6.134;2023-07-31T12:32:25;19.60;83.00
38684;DHT22;24910;53.248;-6.134;2023-07-31T12:34:59;19.50;83.10
38684;DHT22;24910;53.248;-6.134;2023-07-31T12:37:29;19.50;83.20
38684;DHT22;24910;53.248;-6.134;2023-07-31T12:39:59;19.50;83.30
38684;DHT22;24910;53.248;-6.134;2023-07-31T12:42:35;19.40;83.40
38684;DHT22;24910;53.248;-6.134;2023-07-31T12:45:07;19.30;83.50
38684;DHT22;24910;53.248;-6.134;2023-07-31T12:47:36;19.20;83.70
38684;DHT22;24910;53.248;-6.134;2023-07-31T12:50:07;19.30;84.00
38684;DHT22;24910;53.248;-6.134;2023-07-31T12:52:36;19.30;83.80
38684;DHT22;24910;53.248;-6.134;2023-07-31T12:55:05;19.40;83.70
38684;DHT22;24910;53.248;-6.134;2023-07-31T12:57:35;19.50;83.40
38684;DHT22;24910;53.248;-6.134;2023-07-31T13:00:07;19.70;83.30
38684;DHT22;24910;53.248;-6.134;2023-07-31T13:02:36;19.80;83.10
38684;DHT22;24910;53.248;-6.134;2023-07-31T13:05:05;19.90;83.00
38684;DHT22;24910;53.248;-6.134;2023-07-31T13:07:35;20.00;83.00
38684;DHT22;24910;53.248;-6.134;2023-07-31T13:10:04;20.00;83.10
38684;DHT22;24910;53.248;-6.134;2023-07-31T13:12:34;19.90;83.10
38684;DHT22;24910;53.248;-6.134;2023-07-31T13:15:04;20.00;83.20
38684;DHT22;24910;53.248;-6.134;2023-07-31T13:17:35;20.00;83.20
38684;DHT22;24910;53.248;-6.134;2023-07-31T13:20:06;19.90;83.20
38684;DHT22;24910;53.248;-6.134;2023-07-31T13:22:35;19.90;83.30
38684;DHT22;24910;53.248;-6.134;2023-07-31T13:25:05;19.80;83.50
38684;DHT22;24910;53.248;-6.134;2023-07-31T13:27:35;19.80;83.90
38684;DHT22;24910;53.248;-6.134;2023-07-31T13:30:05;19.80;83.90
38684;DHT22;24910;53.248;-6.134;2023-07-31T13:32:36;19.90;84.00
38684;DHT22;24910;53.248;-6.134;2023-07-31T13:35:07;19.90;83.90
38684;DHT22;24910;53.248;-6.134;2023-07-31T13:37:37;20.00;83.90
38684;DHT22;24910;53.248;-6.134;2023-07-31T13:40:07;20.00;83.80
38684;DHT22;24910;53.248;-6.134;2023-07-31T13:42:36;20.10;83.80
38684;DHT22;24910;53.248;-6.134;2023-07-31T13:45:06;20.10;83.60
38684;DHT22;24910;53.248;-6.134;2023-07-31T13:47:36;20.20;83.50
38684;DHT22;24910;53.248;-6.134;2023-07-31T13:50:06;20.30;83.40
38684;DHT22;24910;53.248;-6.134;2023-07-31T13:52:36;20.40;83.30
38684;DHT22;24910;53.248;-6.134;2023-07-31T13:55:06;20.50;83.20
38684;DHT22;24910;53.248;-6.134;2023-07-31T13:57:35;20.50;83.20
38684;DHT22;24910;53.248;-6.134;2023-07-31T14:00:05;20.50;83.20
38684;DHT22;24910;53.248;-6.134;2023-07-31T14:02:37;20.50;83.30
38684;DHT22;24910;53.248;-6.134;2023-07-31T14:05:06;20.40;83.40
38684;DHT22;24910;53.248;-6.134;2023-07-31T14:07:37;20.30;83.40
38684;DHT22;24910;53.248;-6.134;2023-07-31T14:10:06;20.40;83.60
38684;DHT22;24910;53.248;-6.134;2023-07-31T14:12:36;20.30;83.50
38684;DHT22;24910;53.248;-6.134;2023-07-31T14:15:10;20.30;83.50
38684;DHT22;24910;53.248;-6.134;2023-07-31T14:17:41;20.20;83.60
38684;DHT22;24910;53.248;-6.134;2023-07-31T14:20:11;20.20;83.70
38684;DHT22;24910;53.248;-6.134;2023-07-31T14:22:41;20.10;83.60
38684;DHT22;24910;53.248;-6.134;2023-07-31T14:25:10;20.10;83.90
38684;DHT22;24910;53.248;-6.134;2023-07-31T14:27:39;20.00;84.10
38684;DHT22;24910;53.248;-6.134;2023-07-31T14:30:09;20.00;84.10
38684;DHT22;24910;53.248;-6.134;2023-07-31T14:32:38;19.90;84.00
38684;DHT22;24910;53.248;-6.134;2023-07-31T14:35:09;19.90;84.10
38684;DHT22;24910;53.248;-6.134;2023-07-31T14:37:38;19.90;84.10
38684;DHT22;24910;53.248;-6.134;2023-07-31T14:40:08;19.90;84.00
38684;DHT22;24910;53.248;-6.134;2023-07-31T14:42:38;20.00;84.00
38684;DHT22;24910;53.248;-6.134;2023-07-31T14:45:08;20.10;83.80
38684;DHT22;24910;53.248;-6.134;2023-07-31T14:47:38;20.30;83.60
38684;DHT22;24910;53.248;-6.134;2023-07-31T14:50:09;20.40;83.30
38684;DHT22;24910;53.248;-6.134;2023-07-31T14:52:38;20.40;83.20
38684;DHT22;24910;53.248;-6.134;2023-07-31T14:55:08;20.50;83.30
38684;DHT22;24910;53.248;-6.134;2023-07-31T14:57:37;20.50;83.00
38684;DHT22;24910;53.248;-6.134;2023-07-31T15:00:07;20.60;83.00
38684;DHT22;24910;53.248;-6.134;2023-07-31T15:02:38;20.60;82.90
38684;DHT22;24910;53.248;-6.134;2023-07-31T15:05:09;20.80;82.90
38684;DHT22;24910;53.248;-6.134;2023-07-31T15:07:38;20.90;82.70
38684;DHT22;24910;53.248;-6.134;2023-07-31T15:10:08;20.90;82.60
38684;DHT22;24910;53.248;-6.134;2023-07-31T15:12:41;21.00;82.60
38684;DHT22;24910;53.248;-6.134;2023-07-31T15:15:11;21.00;82.50
38684;DHT22;24910;53.248;-6.134;2023-07-31T15:17:40;21.00;82.40
38684;DHT22;24910;53.248;-6.134;2023-07-31T15:20:11;21.10;82.40
38684;DHT22;24910;53.248;-6.134;2023-07-31T15:22:40;21.20;82.30
38684;DHT22;24910;53.248;-6.134;2023-07-31T15:25:10;21.20;82.30
38684;DHT22;24910;53.248;-6.134;2023-07-31T15:27:39;21.20;82.20
38684;DHT22;24910;53.248;-6.134;2023-07-31T15:30:09;21.20;82.10
38684;DHT22;24910;53.248;-6.134;2023-07-31T15:32:38;21.30;82.00
38684;DHT22;24910;53.248;-6.134;2023-07-31T15:35:08;21.40;82.00